Lamar, OK

7:12 AM CDT on August 26, 2016 (GMT -0500)
Oklahoma Plains | | Change Station

Elev 850 ft 35.29 °N, 96.41 °W | Updated 4 minutes ago

Scattered Clouds
Scattered Clouds
69.1 °F
Feels Like 69.1 °F
N
4.2
Wind Variable Wind from East

Today
High -- | Low -- °F
--% Chance of Precip.
Yesterday
High -- | Low -- °F
Precip. -- in
Pressure 30.05 in
Visibility 7.0 miles
Clouds Scattered Clouds 6500 ft
Scattered Clouds 8000 ft
Dew Point 66 °F
Humidity 91%
Rainfall 0.00 in
Snow Depth Not available.
6:52 AM 7:58 PM
Waning Crescent, 35% visible
METAR KMLC 261153Z AUTO 11004KT 7SM SCT065 SCT080 23/21 A3008 RMK AO2 SLP174 T02280211 10256 20222 53003
Pressure 30.05 in
Visibility 7.0 miles
Clouds Scattered Clouds 6500 ft
Scattered Clouds 8000 ft
Dew Point 66 °F
Humidity 91%
Rainfall 0.00 in
Snow Depth Not available.
6:52 AM 7:58 PM
Waning Crescent, 35% visible
METAR KMLC 261153Z AUTO 11004KT 7SM SCT065 SCT080 23/21 A3008 RMK AO2 SLP174 T02280211 10256 20222 53003

10-Day Weather Forecast

Almanac

Astronomy

Aug. 26, 2016 Rise Set
Actual Time
Civil Twilight
Nautical Twilight
Astronomical Twilight
Moon
Length of Visible Light
Length of Day
Tomorrow will be .
, % of the Moon is Illuminated

Today's Extremes

State Highs State Lows

Community

WunderPhotos

Upload Photos

1,935,077 photos uploaded!

WunderBlog® & News

Nearby

Air Quality

  Air Quality AQ Index Pollutant
Not available.

Snow Depth

Station Depth Elevation

Earthquake Activity

City Distance Mag. Time & Date
Minimum magnitude displayed is 2.5.

Coastal Water Temperatures

Place Temperature

Stations

Nearby Weather Stations

Station Location Temp. Windchill Dew Point Humidity Wind Precip. Elev Updated Type
                   

Watches & Warnings

There are currently no watches in effect.